Time;durP1;ratioP1;P1;durP2;ratioP2;P2;SDS_P1;SDS_P2;PMS_P1;PMS_P2;Temp;Humidity;BMP_temperature;BMP_pressure;BME280_temperature;BME280_humidity;BME280_pressure;Samples;Min_cycle;Max_cycle;Signal;HPM_P1;HPM_P2
2022/07/01 00:01:46;;;;;;;1.93;1.00;;;20.50;73.40;;;;;;5065739;28;20465;-45
2022/07/01 00:04:14;;;;;;;1.97;0.80;;;20.40;74.60;;;;;;5064455;28;20447;-45
2022/07/01 00:06:41;;;;;;;1.80;0.70;;;20.40;75.10;;;;;;5049153;28;20450;-45
2022/07/01 00:09:08;;;;;;;1.50;0.70;;;20.30;74.70;;;;;;5044165;28;20482;-45
2022/07/01 00:11:35;;;;;;;1.43;1.03;;;20.20;75.20;;;;;;5064047;28;20883;-45
2022/07/01 00:14:02;;;;;;;1.00;0.60;;;20.20;75.90;;;;;;5060700;28;20489;-45
2022/07/01 00:16:29;;;;;;;0.57;0.53;;;20.10;75.90;;;;;;5049094;28;20926;-45
2022/07/01 00:18:56;;;;;;;1.50;1.40;;;20.00;76.90;;;;;;5064188;28;20578;-45
2022/07/01 00:21:23;;;;;;;4.30;0.93;;;20.00;76.90;;;;;;5047525;28;20446;-46
2022/07/01 00:23:49;;;;;;;0.77;0.77;;;20.00;76.60;;;;;;5062042;28;20535;-46
2022/07/01 00:26:17;;;;;;;0.90;0.80;;;20.00;77.10;;;;;;5065747;28;20512;-46
2022/07/01 00:28:44;;;;;;;1.20;0.60;;;19.90;77.20;;;;;;5062712;28;20980;-46
2022/07/01 00:31:10;;;;;;;1.07;0.50;;;19.90;76.80;;;;;;5062030;28;20923;-46
2022/07/01 00:33:37;;;;;;;1.10;0.53;;;19.90;76.20;;;;;;5061318;28;20894;-46
2022/07/01 00:36:05;;;;;;;0.70;0.40;;;19.80;76.40;;;;;;5060747;28;21310;-46
2022/07/01 00:38:31;;;;;;;2.57;0.67;;;19.80;75.40;;;;;;5059682;28;20474;-46
2022/07/01 00:40:58;;;;;;;0.93;0.47;;;19.70;76.60;;;;;;5063881;28;20852;-46
2022/07/01 00:43:25;;;;;;;0.50;0.50;;;19.60;76.70;;;;;;5063131;28;20447;-46
2022/07/01 00:46:12;;;;;;;0.60;0.50;;;19.50;76.40;;;;;;5062859;28;20843;-45
2022/07/01 00:48:40;;;;;;;1.43;0.43;;;19.40;77.30;;;;;;5062795;28;20521;-45
2022/07/01 00:51:07;;;;;;;1.83;0.60;;;19.40;77.90;;;;;;5062082;28;20877;-45
2022/07/01 00:53:35;;;;;;;1.60;0.73;;;19.40;77.70;;;;;;5059949;28;20518;-46
2022/07/01 00:56:02;;;;;;;2.20;0.70;;;19.30;79.10;;;;;;5048171;28;20449;-46
2022/07/01 00:58:29;;;;;;;1.47;0.73;;;19.30;79.00;;;;;;5046342;28;20437;-46
2022/07/01 01:00:58;;;;;;;1.50;0.70;;;19.30;79.60;;;;;;5047024;28;20481;-45
2022/07/01 01:03:26;;;;;;;0.50;0.40;;;19.20;80.20;;;;;;5046697;28;20484;-45
2022/07/01 01:05:56;;;;;;;3.00;0.70;;;19.20;80.20;;;;;;5049465;28;20528;-46
2022/07/01 01:08:25;;;;;;;2.10;0.60;;;19.20;80.50;;;;;;5057335;28;21372;-46
2022/07/01 01:10:53;;;;;;;2.20;0.60;;;19.20;80.80;;;;;;5063540;28;20987;-46
2022/07/01 01:13:20;;;;;;;1.43;0.47;;;19.10;80.90;;;;;;5060013;28;20486;-46
2022/07/01 01:15:47;;;;;;;0.83;0.53;;;19.10;80.70;;;;;;5045948;28;20522;-46
2022/07/01 01:18:14;;;;;;;1.67;0.60;;;19.10;80.80;;;;;;5061837;28;20449;-46
2022/07/01 01:20:41;;;;;;;1.60;0.57;;;19.10;79.90;;;;;;5043977;28;20453;-46
2022/07/01 01:23:08;;;;;;;0.50;0.40;;;19.00;80.20;;;;;;5048138;28;20461;-47
2022/07/01 01:25:35;;;;;;;1.13;0.60;;;19.00;80.50;;;;;;5063196;28;20453;-47
2022/07/01 01:28:02;;;;;;;0.90;0.53;;;19.00;80.60;;;;;;5046690;28;20821;-46
2022/07/01 01:30:29;;;;;;;1.43;0.50;;;19.00;81.00;;;;;;5061082;28;20452;-46
2022/07/01 01:32:56;;;;;;;0.80;0.60;;;18.90;80.40;;;;;;5048533;28;20493;-46
2022/07/01 01:35:23;;;;;;;1.17;0.80;;;18.90;80.70;;;;;;5060864;28;20822;-46
2022/07/01 01:37:51;;;;;;;1.03;0.60;;;18.90;80.50;;;;;;5047129;28;20638;-46
2022/07/01 01:40:18;;;;;;;1.43;0.50;;;18.80;80.90;;;;;;5060024;28;20529;-46
2022/07/01 01:42:46;;;;;;;0.60;0.53;;;18.80;80.60;;;;;;5062149;28;20889;-47
2022/07/01 01:45:13;;;;;;;3.23;0.57;;;18.80;80.90;;;;;;5061202;28;20784;-46
2022/07/01 01:47:40;;;;;;;1.13;0.53;;;18.70;80.90;;;;;;5063820;28;20457;-46
2022/07/01 01:50:08;;;;;;;1.90;0.50;;;18.70;80.70;;;;;;5059834;28;20435;-47
2022/07/01 01:52:37;;;;;;;0.60;0.50;;;18.70;81.20;;;;;;5064289;28;20442;-47
2022/07/01 01:55:05;;;;;;;0.70;0.70;;;18.60;81.10;;;;;;5058695;28;20489;-47
2022/07/01 01:57:31;;;;;;;0.73;0.40;;;18.70;80.60;;;;;;5059652;28;20442;-46
2022/07/01 01:59:58;;;;;;;0.70;0.70;;;18.60;80.40;;;;;;5060244;28;20471;-46
2022/07/01 02:02:25;;;;;;;0.60;0.53;;;18.60;80.80;;;;;;5064403;28;20639;-46
2022/07/01 02:04:52;;;;;;;1.23;0.50;;;18.60;81.30;;;;;;5045399;28;20475;-46
2022/07/01 02:07:19;;;;;;;0.60;0.40;;;18.60;81.50;;;;;;5062293;28;20445;-47
2022/07/01 02:09:46;;;;;;;0.57;0.50;;;18.60;81.00;;;;;;5064179;28;20461;-47
2022/07/01 02:12:12;;;;;;;0.80;0.60;;;18.60;81.00;;;;;;5046704;28;20821;-46
2022/07/01 02:14:39;;;;;;;0.70;0.57;;;18.60;81.60;;;;;;5046337;28;20494;-47
2022/07/01 02:17:07;;;;;;;0.80;0.50;;;18.60;81.30;;;;;;5062032;28;20457;-46
2022/07/01 02:19:34;;;;;;;1.83;0.70;;;18.60;81.20;;;;;;5064233;28;20446;-46
2022/07/01 02:22:00;;;;;;;2.40;0.60;;;18.60;80.90;;;;;;5048583;28;20456;-46
2022/07/01 02:24:27;;;;;;;3.50;0.60;;;18.60;80.60;;;;;;5046205;28;20441;-46
2022/07/01 02:26:54;;;;;;;0.73;0.50;;;18.50;81.00;;;;;;5059906;28;20974;-46
2022/07/01 02:29:21;;;;;;;0.70;0.70;;;18.50;80.80;;;;;;5062024;28;20446;-46
2022/07/01 02:31:48;;;;;;;0.60;0.57;;;18.50;81.10;;;;;;5060592;28;20453;-46
2022/07/01 02:34:15;;;;;;;0.70;0.60;;;18.50;80.90;;;;;;5061562;28;20517;-46
2022/07/01 02:36:42;;;;;;;1.20;0.60;;;18.40;81.00;;;;;;5056300;28;20443;-46
2022/07/01 02:39:09;;;;;;;2.23;0.50;;;18.40;81.00;;;;;;5063507;28;20488;-46
2022/07/01 02:42:22;;;;;;;1.47;0.60;;;18.40;82.00;;;;;;5050590;28;20442;-46
2022/07/01 02:44:22;;;;;;;0.80;0.60;;;18.40;81.40;;;;;;5060976;28;20445;-47
2022/07/01 02:46:49;;;;;;;0.70;0.60;;;18.40;81.00;;;;;;5061845;28;20477;-47
2022/07/01 02:49:16;;;;;;;0.77;0.60;;;18.40;80.90;;;;;;5045516;28;20872;-46
2022/07/01 02:51:42;;;;;;;0.70;0.63;;;18.40;81.10;;;;;;5063820;28;20441;-47
2022/07/01 02:54:09;;;;;;;1.17;0.40;;;18.40;81.30;;;;;;5062425;28;20488;-46
2022/07/01 02:56:36;;;;;;;0.87;0.60;;;18.40;81.50;;;;;;5059488;28;20446;-45
2022/07/01 02:59:03;;;;;;;0.60;0.50;;;18.30;81.50;;;;;;5061334;28;20446;-46
2022/07/01 03:01:29;;;;;;;0.70;0.50;;;18.30;81.80;;;;;;5058877;28;20469;-46
2022/07/01 03:03:56;;;;;;;1.63;0.70;;;18.30;81.40;;;;;;5061643;28;20739;-46
2022/07/01 03:06:23;;;;;;;0.70;0.50;;;18.30;81.30;;;;;;5049443;28;20445;-46
2022/07/01 03:08:50;;;;;;;0.80;0.57;;;18.30;81.40;;;;;;5067352;28;20458;-46
2022/07/01 03:11:16;;;;;;;0.50;0.40;;;18.30;81.20;;;;;;5061621;28;20442;-46
2022/07/01 03:13:43;;;;;;;0.80;0.60;;;18.20;80.30;;;;;;5063528;28;21017;-46
2022/07/01 03:16:10;;;;;;;0.97;0.70;;;18.20;80.90;;;;;;5066217;28;20457;-46
2022/07/01 03:18:37;;;;;;;0.60;0.53;;;18.20;80.50;;;;;;5062358;28;20528;-46
2022/07/01 03:21:04;;;;;;;0.60;0.60;;;18.20;80.70;;;;;;5032501;28;20800;-46
2022/07/01 03:23:31;;;;;;;0.70;0.43;;;18.20;80.70;;;;;;5060801;28;20547;-46
2022/07/01 03:25:59;;;;;;;0.70;0.47;;;18.20;80.50;;;;;;5062195;28;20450;-46
2022/07/01 03:28:26;;;;;;;1.13;0.50;;;18.20;79.90;;;;;;5064340;28;20963;-46
2022/07/01 03:30:53;;;;;;;1.00;0.53;;;18.20;80.10;;;;;;5050505;28;20476;-46
2022/07/01 03:33:20;;;;;;;0.50;0.40;;;18.10;80.50;;;;;;5063826;28;20788;-46
2022/07/01 03:35:46;;;;;;;0.70;0.50;;;18.10;80.30;;;;;;5060797;28;20470;-46
2022/07/01 03:38:13;;;;;;;1.40;0.43;;;18.10;80.50;;;;;;5047176;28;20480;-46
2022/07/01 03:40:40;;;;;;;0.50;0.40;;;18.10;80.50;;;;;;5059515;28;20450;-46
2022/07/01 03:43:07;;;;;;;0.60;0.50;;;18.10;80.60;;;;;;5064274;28;20438;-46
2022/07/01 03:45:34;;;;;;;0.90;0.50;;;18.00;80.70;;;;;;5064326;28;20452;-46
2022/07/01 03:48:02;;;;;;;1.50;0.80;;;18.00;80.80;;;;;;5045219;28;20454;-46
2022/07/01 03:50:29;;;;;;;0.57;0.50;;;18.00;80.80;;;;;;5062280;28;20498;-46
2022/07/01 03:55:41;;;;;;;0.90;0.60;;;18.00;80.30;;;;;;5060074;28;20490;-46
2022/07/01 03:58:08;;;;;;;1.43;0.50;;;18.00;80.50;;;;;;5063265;28;20453;-46
2022/07/01 04:00:37;;;;;;;1.00;0.60;;;18.00;80.40;;;;;;5061484;28;21031;-46
2022/07/01 04:03:06;;;;;;;0.60;0.40;;;18.00;80.10;;;;;;5064479;28;20449;-46
2022/07/01 04:05:37;;;;;;;0.70;0.50;;;18.00;80.20;;;;;;5061861;28;20458;-46
2022/07/01 04:08:05;;;;;;;1.40;0.70;;;17.90;80.40;;;;;;5047271;28;20437;-46
2022/07/01 04:10:33;;;;;;;1.47;0.53;;;17.90;80.90;;;;;;5045577;28;20942;-46
2022/07/01 04:13:03;;;;;;;3.53;0.83;;;17.90;81.00;;;;;;5064248;28;20451;-46
2022/07/01 04:15:50;;;;;;;1.77;0.50;;;17.90;81.40;;;;;;5062166;28;21058;-46
2022/07/01 04:18:17;;;;;;;1.13;0.50;;;17.90;81.00;;;;;;5058883;28;20453;-46
2022/07/01 04:22:32;;;;;;;0.87;0.60;;;17.90;80.80;;;;;;5059500;28;20443;-46
2022/07/01 04:23:33;;;;;;;0.70;0.50;;;17.90;80.60;;;;;;5060812;28;20940;-46
2022/07/01 04:26:00;;;;;;;0.83;0.53;;;17.90;81.20;;;;;;5044389;28;20573;-46
2022/07/01 04:28:47;;;;;;;1.77;0.90;;;17.90;80.80;;;;;;5051478;28;20435;-46
2022/07/01 04:31:14;;;;;;;1.20;0.60;;;17.90;80.70;;;;;;5051944;28;20446;-46
2022/07/01 04:33:41;;;;;;;0.90;0.60;;;17.90;80.30;;;;;;5047084;28;20454;-46
2022/07/01 04:36:08;;;;;;;1.33;0.50;;;17.90;79.90;;;;;;5063691;28;20872;-47
2022/07/01 04:38:35;;;;;;;0.93;0.80;;;17.90;80.00;;;;;;5061427;28;20925;-46
2022/07/01 04:43:47;;;;;;;0.80;0.60;;;17.90;80.10;;;;;;5057633;28;20447;-46
2022/07/01 04:46:14;;;;;;;1.30;0.50;;;17.90;80.30;;;;;;5059401;28;20445;-46
2022/07/01 04:48:42;;;;;;;1.03;0.90;;;17.90;79.50;;;;;;5047145;28;20453;-46
2022/07/01 04:51:08;;;;;;;1.07;0.70;;;17.90;80.20;;;;;;5062398;28;20446;-46
2022/07/01 04:53:35;;;;;;;0.83;0.73;;;17.90;80.50;;;;;;5062358;28;20441;-46
2022/07/01 04:56:02;;;;;;;2.23;0.87;;;17.90;81.00;;;;;;5063188;28;20445;-46
2022/07/01 04:58:29;;;;;;;0.70;0.50;;;17.90;81.00;;;;;;5063144;28;20450;-46
2022/07/01 05:00:56;;;;;;;1.30;0.60;;;17.90;80.80;;;;;;5048338;28;20485;-46
2022/07/01 05:03:23;;;;;;;1.23;0.60;;;17.90;80.40;;;;;;5051967;28;20824;-46
2022/07/01 05:05:49;;;;;;;2.50;0.77;;;17.90;80.50;;;;;;5060821;28;20966;-46
2022/07/01 05:08:16;;;;;;;1.50;0.90;;;17.90;80.60;;;;;;5061272;28;20446;-46
2022/07/01 05:10:43;;;;;;;2.47;0.70;;;17.90;80.60;;;;;;5046346;28;20445;-46
2022/07/01 05:13:10;;;;;;;1.73;0.80;;;17.90;80.90;;;;;;5053134;28;20521;-46
2022/07/01 05:15:36;;;;;;;2.50;1.00;;;17.90;81.20;;;;;;5044565;28;20489;-46
2022/07/01 05:23:36;;;;;;;2.03;0.80;;;17.90;80.70;;;;;;5058723;28;20449;-46
2022/07/01 05:26:04;;;;;;;2.47;1.20;;;17.90;81.30;;;;;;5043202;28;20981;-46
2022/07/01 05:28:30;;;;;;;1.73;1.10;;;18.00;81.20;;;;;;5063479;28;20450;-46
2022/07/01 05:30:57;;;;;;;1.60;1.10;;;18.10;80.70;;;;;;5060143;28;20485;-46
2022/07/01 05:33:26;;;;;;;1.10;1.00;;;18.10;80.70;;;;;;5060758;28;20446;-46
2022/07/01 05:35:53;;;;;;;1.23;0.80;;;18.10;79.50;;;;;;5064064;28;20982;-46
2022/07/01 05:38:21;;;;;;;3.23;1.60;;;18.10;79.00;;;;;;5044773;28;20547;-46
2022/07/01 05:40:47;;;;;;;2.37;1.10;;;18.10;79.00;;;;;;5064029;28;20627;-46
2022/07/01 05:43:14;;;;;;;1.60;0.90;;;18.10;78.70;;;;;;5026137;28;20779;-46
2022/07/01 05:45:41;;;;;;;2.27;2.07;;;18.10;78.70;;;;;;5059259;28;20458;-46
2022/07/01 05:48:08;;;;;;;1.53;1.03;;;18.10;79.20;;;;;;5045110;28;20452;-46
2022/07/01 05:50:34;;;;;;;1.50;1.20;;;18.10;78.10;;;;;;5033766;28;20495;-46
2022/07/01 05:53:01;;;;;;;2.90;1.30;;;18.10;77.50;;;;;;5049601;28;20502;-46
2022/07/01 05:55:28;;;;;;;1.97;1.67;;;18.10;77.70;;;;;;5059646;28;20490;-46
2022/07/01 05:57:55;;;;;;;1.30;1.20;;;18.10;77.80;;;;;;5061934;28;20443;-47
2022/07/01 06:00:22;;;;;;;1.87;1.43;;;18.10;77.80;;;;;;5040808;28;20913;-46
2022/07/01 06:02:48;;;;;;;1.93;1.50;;;18.10;78.50;;;;;;5058071;28;20852;-46
2022/07/01 06:05:15;;;;;;;3.00;1.40;;;18.10;77.90;;;;;;5062047;28;21004;-46
2022/07/01 06:07:42;;;;;;;1.80;1.00;;;18.20;76.30;;;;;;5027658;28;20548;-46
2022/07/01 06:10:10;;;;;;;2.17;1.40;;;18.10;75.90;;;;;;5047257;28;20442;-46
2022/07/01 06:12:38;;;;;;;4.60;1.13;;;18.10;76.20;;;;;;5045116;28;20453;-45
2022/07/01 06:15:10;;;;;;;1.87;1.50;;;18.10;75.30;;;;;;5062573;28;20482;-46
2022/07/01 06:17:39;;;;;;;2.30;1.87;;;18.10;75.50;;;;;;5059716;28;20456;-46
2022/07/01 06:20:08;;;;;;;2.43;1.73;;;18.10;74.10;;;;;;5060840;28;20455;-46
2022/07/01 06:22:35;;;;;;;2.03;1.50;;;18.00;74.90;;;;;;5056745;28;20442;-46
2022/07/01 06:25:03;;;;;;;13.40;2.90;;;18.00;75.00;;;;;;5045097;28;20961;-46
2022/07/01 06:27:29;;;;;;;1.20;1.10;;;18.10;76.60;;;;;;5062524;28;20533;-46
2022/07/01 06:29:56;;;;;;;4.60;1.97;;;18.10;75.10;;;;;;5061141;28;20453;-46
2022/07/01 06:32:23;;;;;;;2.80;1.30;;;18.10;75.30;;;;;;5045196;28;20468;-46
2022/07/01 06:34:51;;;;;;;1.90;1.33;;;18.20;74.50;;;;;;5054877;28;20500;-46
2022/07/01 06:37:21;;;;;;;2.57;1.57;;;18.20;75.10;;;;;;5043304;28;20455;-46
2022/07/01 06:39:48;;;;;;;3.17;1.40;;;18.20;75.10;;;;;;5044108;28;20445;-46
2022/07/01 06:42:15;;;;;;;1.50;1.40;;;18.20;75.50;;;;;;5047563;28;20484;-46
2022/07/01 06:44:42;;;;;;;3.90;1.90;;;18.20;74.50;;;;;;5063148;28;20442;-46
2022/07/01 06:47:09;;;;;;;1.43;1.33;;;18.20;73.40;;;;;;5051924;28;20445;-46
2022/07/01 06:49:36;;;;;;;1.40;1.30;;;18.20;73.40;;;;;;5048068;28;20453;-46
2022/07/01 06:52:03;;;;;;;2.80;1.43;;;18.20;73.70;;;;;;5064539;28;20446;-46
2022/07/01 06:54:29;;;;;;;2.10;1.30;;;18.20;74.70;;;;;;5063165;28;20481;-46
2022/07/01 06:56:56;;;;;;;1.50;1.37;;;18.20;74.70;;;;;;5067391;28;20441;-46
2022/07/01 06:59:23;;;;;;;1.17;1.03;;;18.20;74.70;;;;;;5049758;28;20811;-47
2022/07/01 07:01:50;;;;;;;2.10;1.37;;;18.30;74.70;;;;;;5048212;28;20446;-46
2022/07/01 07:04:17;;;;;;;3.13;1.67;;;18.30;74.80;;;;;;5061048;28;20449;-46
2022/07/01 07:07:04;;;;;;;1.80;1.50;;;18.30;74.40;;;;;;5066419;28;20425;-46
2022/07/01 07:09:30;;;;;;;1.50;1.40;;;18.30;73.30;;;;;;5062855;28;20528;-46
2022/07/01 07:11:57;;;;;;;1.20;1.00;;;18.30;74.50;;;;;;5063268;28;20439;-46
2022/07/01 07:14:24;;;;;;;4.33;1.70;;;18.30;73.40;;;;;;5046698;28;20443;-46
2022/07/01 07:16:53;;;;;;;3.07;1.20;;;18.30;73.20;;;;;;5048480;28;20454;-46
2022/07/01 07:19:20;;;;;;;1.80;1.70;;;18.30;73.30;;;;;;5066357;28;20441;-46
2022/07/01 07:21:46;;;;;;;2.23;1.63;;;18.30;72.40;;;;;;5055201;28;20461;-46
2022/07/01 07:24:13;;;;;;;3.60;1.80;;;18.20;73.00;;;;;;5049640;28;20457;-46
2022/07/01 07:26:40;;;;;;;1.23;1.10;;;18.20;73.10;;;;;;5062673;28;20446;-46
2022/07/01 07:29:07;;;;;;;3.50;1.47;;;18.20;73.80;;;;;;5045636;28;20457;-46
2022/07/01 07:31:33;;;;;;;2.90;1.67;;;18.20;72.70;;;;;;5063914;28;20453;-46
2022/07/01 07:34:00;;;;;;;3.50;1.90;;;18.10;73.70;;;;;;5048758;28;20563;-46
2022/07/01 07:36:27;;;;;;;2.00;1.57;;;18.10;74.20;;;;;;5065193;28;20524;-46
2022/07/01 07:38:54;;;;;;;1.50;1.37;;;18.10;74.30;;;;;;5047405;28;20824;-46
2022/07/01 07:41:21;;;;;;;2.20;1.60;;;18.10;74.30;;;;;;5064600;28;20446;-46
2022/07/01 07:43:48;;;;;;;1.50;1.40;;;18.10;74.40;;;;;;5059395;28;20462;-46
2022/07/01 07:46:15;;;;;;;2.57;2.10;;;18.10;75.50;;;;;;5064268;28;20450;-46
2022/07/01 07:48:43;;;;;;;2.57;1.93;;;18.20;75.50;;;;;;5064491;28;20732;-46
2022/07/01 07:51:14;;;;;;;2.33;1.63;;;18.20;74.90;;;;;;5064036;28;20962;-46
2022/07/01 07:53:41;;;;;;;1.67;1.53;;;18.30;75.40;;;;;;5063684;28;20506;-46
2022/07/01 07:56:07;;;;;;;3.40;1.67;;;18.30;75.30;;;;;;5049379;28;20852;-46
2022/07/01 07:58:34;;;;;;;1.60;1.23;;;18.30;75.20;;;;;;5046467;28;20448;-46
2022/07/01 08:01:01;;;;;;;2.33;1.67;;;18.30;75.60;;;;;;5047003;28;20819;-46
2022/07/01 08:03:31;;;;;;;3.53;1.60;;;18.30;75.70;;;;;;5063335;28;20474;-46
2022/07/01 08:05:58;;;;;;;1.93;1.30;;;18.30;74.90;;;;;;5062731;28;20446;-46
2022/07/01 08:08:27;;;;;;;2.03;1.70;;;18.40;75.70;;;;;;5061138;28;20442;-46
2022/07/01 08:10:54;;;;;;;1.90;1.70;;;18.30;75.40;;;;;;5047168;28;20453;-46
2022/07/01 08:13:20;;;;;;;1.57;1.40;;;18.40;75.30;;;;;;5059977;28;20449;-46
2022/07/01 08:15:47;;;;;;;2.30;2.00;;;18.40;74.70;;;;;;5062636;28;20573;-46
2022/07/01 08:18:14;;;;;;;1.57;1.47;;;18.40;74.70;;;;;;5067383;28;20456;-46
2022/07/01 08:20:41;;;;;;;1.63;1.53;;;18.40;74.70;;;;;;5061561;28;20481;-46
2022/07/01 08:23:07;;;;;;;3.30;2.20;;;18.50;74.50;;;;;;5064856;28;20452;-46
2022/07/01 08:25:34;;;;;;;2.97;2.77;;;18.50;74.20;;;;;;5062262;28;20461;-46
2022/07/01 08:28:02;;;;;;;2.20;2.00;;;18.50;74.20;;;;;;5065533;28;20445;-47
2022/07/01 08:30:29;;;;;;;2.60;1.47;;;18.60;73.90;;;;;;5049097;28;20442;-46
2022/07/01 08:32:56;;;;;;;3.53;2.13;;;18.60;73.80;;;;;;5063922;28;20457;-46
2022/07/01 08:35:23;;;;;;;2.63;1.50;;;18.60;72.40;;;;;;5045181;28;20512;-46
2022/07/01 08:37:50;;;;;;;2.50;1.47;;;18.60;72.10;;;;;;5047411;28;20524;-46
2022/07/01 08:40:18;;;;;;;2.30;1.77;;;18.60;72.40;;;;;;5063453;28;20446;-47
2022/07/01 08:42:45;;;;;;;7.23;1.43;;;18.60;72.80;;;;;;5046890;28;20442;-46
2022/07/01 08:45:12;;;;;;;2.10;1.67;;;18.60;72.10;;;;;;5062746;28;20449;-46
2022/07/01 08:48:02;;;;;;;1.60;1.50;;;18.60;71.70;;;;;;5060094;28;20449;-46
2022/07/01 08:50:40;;;;;;;1.40;1.20;;;18.70;72.60;;;;;;5062619;28;20573;-46
2022/07/01 08:53:09;;;;;;;2.37;1.80;;;18.70;72.70;;;;;;5061080;28;20865;-46
2022/07/01 08:56:40;;;;;;;2.47;1.70;;;18.70;72.80;;;;;;5051661;28;20485;-46
2022/07/01 08:58:28;;;;;;;2.70;1.53;;;18.70;72.50;;;;;;5060678;28;21072;-46
2022/07/01 09:01:17;;;;;;;3.17;1.40;;;18.70;72.40;;;;;;5061170;28;20476;-46
2022/07/01 09:03:47;;;;;;;1.53;1.43;;;18.70;72.00;;;;;;5062689;28;20491;-46
2022/07/01 09:06:20;;;;;;;1.60;1.37;;;18.70;71.90;;;;;;5048295;28;20461;-46
2022/07/01 09:08:48;;;;;;;1.70;1.10;;;18.70;73.00;;;;;;5062135;28;20457;-46
2022/07/01 09:11:16;;;;;;;5.27;1.60;;;18.80;71.30;;;;;;5062888;28;20477;-46
2022/07/01 09:13:44;;;;;;;3.33;1.70;;;18.80;71.40;;;;;;5047801;28;20456;-46
2022/07/01 09:16:16;;;;;;;3.37;1.53;;;18.80;71.40;;;;;;5065292;28;20489;-46
2022/07/01 09:19:00;;;;;;;2.30;1.00;;;18.80;70.20;;;;;;5060523;28;20446;-46
2022/07/01 09:21:30;;;;;;;8.93;1.30;;;18.80;69.10;;;;;;5063084;28;20477;-46
2022/07/01 09:24:17;;;;;;;1.93;1.20;;;18.80;69.60;;;;;;5044322;28;20442;-46
2022/07/01 09:27:00;;;;;;;1.77;1.53;;;18.80;69.50;;;;;;5058131;28;20447;-46
2022/07/01 09:29:38;;;;;;;2.50;1.10;;;18.70;70.20;;;;;;5062474;28;20795;-46
2022/07/01 09:32:10;;;;;;;1.57;1.47;;;18.70;70.30;;;;;;5046941;28;20449;-46
2022/07/01 09:34:43;;;;;;;3.13;1.27;;;18.80;70.90;;;;;;5051491;28;20484;-46
2022/07/01 09:37:21;;;;;;;1.83;1.30;;;18.80;70.30;;;;;;5059001;28;20561;-46
2022/07/01 09:39:49;;;;;;;4.10;2.33;;;18.90;70.70;;;;;;5043003;28;20437;-46
2022/07/01 09:42:18;;;;;;;1.80;1.60;;;19.00;69.90;;;;;;5061859;28;20946;-46
2022/07/01 09:45:04;;;;;;;3.53;1.10;;;19.00;69.70;;;;;;5062821;28;20446;-46
2022/07/01 09:47:33;;;;;;;1.67;1.20;;;19.10;70.20;;;;;;5062165;28;20442;-46
2022/07/01 09:50:01;;;;;;;3.83;1.23;;;19.20;67.90;;;;;;5062402;28;20553;-46
2022/07/01 09:52:28;;;;;;;1.67;1.20;;;19.30;67.10;;;;;;5043969;28;20442;-46
2022/07/01 09:55:07;;;;;;;3.50;1.70;;;19.30;68.20;;;;;;5048159;28;20521;-46
2022/07/01 09:57:34;;;;;;;1.30;1.20;;;19.40;68.30;;;;;;5044835;28;20467;-46
2022/07/01 10:00:03;;;;;;;2.90;1.57;;;19.50;68.10;;;;;;5062007;28;20473;-46
2022/07/01 10:02:32;;;;;;;1.30;1.20;;;19.70;66.00;;;;;;5063799;28;20526;-46
2022/07/01 10:05:05;;;;;;;1.50;1.23;;;19.70;66.00;;;;;;5046961;28;20855;-46
2022/07/01 10:07:46;;;;;;;1.90;1.40;;;19.90;64.40;;;;;;5041249;28;20457;-46
2022/07/01 10:10:31;;;;;;;4.40;1.00;;;20.10;64.70;;;;;;5055891;28;20822;-46
2022/07/01 10:13:00;;;;;;;1.40;1.00;;;20.30;64.60;;;;;;5048551;28;20442;-46
2022/07/01 10:15:27;;;;;;;2.87;1.20;;;20.60;64.00;;;;;;5063009;28;20491;-47
2022/07/01 10:17:54;;;;;;;2.20;1.10;;;20.90;62.00;;;;;;5067751;28;20461;-46
2022/07/01 10:20:26;;;;;;;6.00;1.77;;;21.10;61.70;;;;;;5053121;28;20448;-46
2022/07/01 10:23:07;;;;;;;1.87;1.30;;;21.20;60.30;;;;;;5052976;28;20533;-47
2022/07/01 10:25:38;;;;;;;1.67;1.20;;;21.10;60.70;;;;;;5068946;28;20461;-47
2022/07/01 10:28:28;;;;;;;1.93;1.20;;;21.00;61.40;;;;;;5066606;28;20520;-47
2022/07/01 10:31:02;;;;;;;1.80;1.23;;;21.00;61.80;;;;;;5056497;28;20464;-46
2022/07/01 10:33:41;;;;;;;1.47;1.20;;;20.90;62.00;;;;;;5064429;28;20537;-46
2022/07/01 10:36:09;;;;;;;2.40;1.30;;;20.80;62.10;;;;;;5066292;28;20485;-47
2022/07/01 10:39:09;;;;;;;1.47;1.30;;;20.70;62.90;;;;;;5066525;28;20771;-46
2022/07/01 10:41:41;;;;;;;3.47;1.20;;;20.60;63.40;;;;;;5062247;28;20831;-47
2022/07/01 10:44:14;;;;;;;2.53;1.53;;;20.60;62.30;;;;;;5063434;28;21041;-46
2022/07/01 10:46:46;;;;;;;1.47;1.10;;;20.60;63.00;;;;;;5050085;28;20472;-46
2022/07/01 10:49:14;;;;;;;4.00;1.20;;;20.70;63.20;;;;;;5052479;28;20503;-46
2022/07/01 10:51:49;;;;;;;2.30;1.40;;;20.70;62.40;;;;;;5065823;28;21349;-46
2022/07/01 10:54:34;;;;;;;2.53;1.53;;;20.70;62.70;;;;;;5051305;28;20455;-47
2022/07/01 10:57:20;;;;;;;4.73;1.50;;;20.70;63.10;;;;;;5053911;28;20546;-46
2022/07/01 10:59:53;;;;;;;4.00;1.27;;;20.80;63.20;;;;;;5065937;28;20540;-46
2022/07/01 11:02:32;;;;;;;2.33;1.67;;;20.90;62.20;;;;;;5065844;28;20958;-47
2022/07/01 11:05:04;;;;;;;1.73;1.33;;;21.00;61.40;;;;;;5064296;28;20793;-47
2022/07/01 11:07:34;;;;;;;1.43;1.03;;;21.00;61.60;;;;;;5050845;28;20817;-47
2022/07/01 11:10:03;;;;;;;2.17;1.57;;;20.90;61.10;;;;;;5052557;28;20453;-46
2022/07/01 11:12:31;;;;;;;1.77;1.03;;;20.90;60.50;;;;;;5065108;28;20568;-46
2022/07/01 11:14:59;;;;;;;1.40;1.30;;;20.70;61.80;;;;;;5066702;28;20450;-46
2022/07/01 11:17:26;;;;;;;2.23;1.60;;;20.70;62.50;;;;;;5065525;28;20527;-46
2022/07/01 11:19:58;;;;;;;2.53;1.00;;;20.70;62.50;;;;;;5057812;28;20477;-46
2022/07/01 11:22:27;;;;;;;2.10;1.17;;;20.70;62.60;;;;;;5067399;28;20475;-47
2022/07/01 11:24:59;;;;;;;3.00;1.30;;;20.70;62.30;;;;;;5067943;28;20537;-47
2022/07/01 11:27:27;;;;;;;2.53;1.27;;;20.80;62.10;;;;;;5065123;28;20834;-46
2022/07/01 11:29:59;;;;;;;2.00;1.20;;;20.90;61.90;;;;;;5066989;28;20460;-47
2022/07/01 11:32:31;;;;;;;1.53;0.90;;;21.00;61.10;;;;;;5064154;28;20484;-46
2022/07/01 11:34:59;;;;;;;1.30;1.20;;;21.00;61.80;;;;;;5068868;28;20446;-47
2022/07/01 11:40:18;;;;;;;1.30;1.20;;;21.00;62.20;;;;;;5052518;28;20517;-47
2022/07/01 11:42:45;;;;;;;1.00;0.90;;;21.00;61.80;;;;;;5049216;28;20452;-46
2022/07/01 11:45:26;;;;;;;1.30;0.90;;;21.00;61.30;;;;;;5049911;28;20474;-47
2022/07/01 11:47:53;;;;;;;1.77;1.00;;;20.90;61.30;;;;;;5065441;28;20442;-46
2022/07/01 11:50:20;;;;;;;1.53;1.20;;;20.90;60.60;;;;;;5047453;28;20456;-47
2022/07/01 11:52:47;;;;;;;0.80;0.80;;;20.90;60.90;;;;;;5064092;28;20439;-46
2022/07/01 11:55:18;;;;;;;1.73;1.63;;;20.90;59.90;;;;;;5063774;28;20450;-47
2022/07/01 11:58:05;;;;;;;2.03;1.20;;;21.00;61.30;;;;;;5054664;28;20486;-46
2022/07/01 12:00:35;;;;;;;1.37;1.17;;;21.00;59.10;;;;;;5062634;28;20468;-47
2022/07/01 12:03:02;;;;;;;3.23;1.37;;;21.10;59.20;;;;;;5040198;28;20457;-46
2022/07/01 12:05:29;;;;;;;1.77;1.10;;;21.10;59.10;;;;;;5049852;28;20437;-46
2022/07/01 12:08:04;;;;;;;1.30;0.93;;;21.20;59.50;;;;;;5064765;28;20440;-47
2022/07/01 12:10:31;;;;;;;1.20;1.03;;;21.30;59.50;;;;;;5066669;28;20554;-46
2022/07/01 12:12:58;;;;;;;1.73;0.90;;;21.30;59.00;;;;;;5035836;28;20450;-46
2022/07/01 12:15:25;;;;;;;2.20;1.00;;;21.40;59.70;;;;;;5033695;28;20450;-46
2022/07/01 12:18:04;;;;;;;1.80;0.80;;;21.40;57.70;;;;;;5064703;28;20534;-46
2022/07/01 12:20:32;;;;;;;2.80;1.20;;;21.40;58.10;;;;;;5051589;28;20446;-47
2022/07/01 12:23:12;;;;;;;2.90;0.80;;;21.50;57.60;;;;;;5068075;28;20449;-46
2022/07/01 12:25:45;;;;;;;2.93;1.00;;;21.50;58.10;;;;;;5031368;28;20449;-47
2022/07/01 12:28:36;;;;;;;2.50;1.13;;;21.60;58.80;;;;;;5064711;28;20954;-46
2022/07/01 12:31:08;;;;;;;1.33;1.20;;;21.60;58.10;;;;;;5064881;28;20457;-47
2022/07/01 12:33:39;;;;;;;1.20;0.80;;;21.70;57.50;;;;;;5063519;28;20488;-47
2022/07/01 12:36:07;;;;;;;0.90;0.90;;;21.80;56.20;;;;;;5067471;28;20492;-46
2022/07/01 12:38:34;;;;;;;2.67;0.90;;;21.80;56.90;;;;;;5063850;28;20433;-47
2022/07/01 12:41:01;;;;;;;1.40;1.17;;;21.90;57.60;;;;;;5065530;28;20955;-47
2022/07/01 12:43:32;;;;;;;2.20;0.90;;;21.90;57.00;;;;;;5066549;28;20989;-46
2022/07/01 12:46:00;;;;;;;1.47;0.93;;;22.00;55.60;;;;;;5050833;28;20980;-47
2022/07/01 12:48:27;;;;;;;0.80;0.70;;;22.00;56.10;;;;;;5061518;28;20438;-46
2022/07/01 12:50:56;;;;;;;1.03;0.90;;;22.00;55.90;;;;;;5065995;28;20441;-47
2022/07/01 12:53:24;;;;;;;1.10;0.80;;;22.00;54.40;;;;;;5066614;28;20477;-47
2022/07/01 12:55:57;;;;;;;4.30;1.17;;;22.00;54.50;;;;;;5061843;28;20452;-46
2022/07/01 12:58:26;;;;;;;1.10;0.90;;;22.00;54.80;;;;;;5062948;28;20827;-46
2022/07/01 13:00:56;;;;;;;1.70;0.80;;;21.90;56.00;;;;;;5063086;28;20530;-47
2022/07/01 13:03:26;;;;;;;1.00;0.70;;;21.90;57.00;;;;;;5061234;28;20472;-46
2022/07/01 13:05:54;;;;;;;1.40;1.30;;;21.90;55.70;;;;;;5063718;28;20457;-46
2022/07/01 13:08:21;;;;;;;1.00;0.70;;;21.80;55.50;;;;;;5066644;28;20446;-46
2022/07/01 13:10:49;;;;;;;1.00;0.90;;;21.70;56.00;;;;;;5067642;28;20952;-46
2022/07/01 13:13:19;;;;;;;1.30;0.73;;;21.60;56.70;;;;;;5061589;28;20445;-47